sensor_id;sensor_type;location;lat;lon;timestamp;temperature;humidity
2955;DHT22;1487;51.470;6.938;2022-10-31T00:00:46;15.30;99.90
2955;DHT22;1487;51.470;6.938;2022-10-31T00:03:13;15.30;99.90
2955;DHT22;1487;51.470;6.938;2022-10-31T00:05:41;15.20;99.90
2955;DHT22;1487;51.470;6.938;2022-10-31T00:08:07;15.20;99.90
2955;DHT22;1487;51.470;6.938;2022-10-31T00:10:37;15.20;99.90
2955;DHT22;1487;51.470;6.938;2022-10-31T00:13:05;15.10;99.90
2955;DHT22;1487;51.470;6.938;2022-10-31T00:15:33;14.90;99.90
2955;DHT22;1487;51.470;6.938;2022-10-31T00:17:59;14.90;99.90
2955;DHT22;1487;51.470;6.938;2022-10-31T00:20:27;14.90;99.90
2955;DHT22;1487;51.470;6.938;2022-10-31T00:22:54;14.80;99.90
2955;DHT22;1487;51.470;6.938;2022-10-31T00:25:23;14.70;99.90
2955;DHT22;1487;51.470;6.938;2022-10-31T00:27:50;14.70;99.90
2955;DHT22;1487;51.470;6.938;2022-10-31T00:30:18;14.60;99.90
2955;DHT22;1487;51.470;6.938;2022-10-31T00:32:45;14.50;99.90
2955;DHT22;1487;51.470;6.938;2022-10-31T00:35:12;14.40;99.90
2955;DHT22;1487;51.470;6.938;2022-10-31T00:37:39;14.30;99.90
2955;DHT22;1487;51.470;6.938;2022-10-31T00:40:07;14.30;99.90
2955;DHT22;1487;51.470;6.938;2022-10-31T00:42:34;14.30;99.90
2955;DHT22;1487;51.470;6.938;2022-10-31T00:45:01;14.30;99.90
2955;DHT22;1487;51.470;6.938;2022-10-31T00:47:29;14.30;99.90
2955;DHT22;1487;51.470;6.938;2022-10-31T00:49:56;14.40;99.90
2955;DHT22;1487;51.470;6.938;2022-10-31T00:52:22;14.40;99.90
2955;DHT22;1487;51.470;6.938;2022-10-31T00:54:49;14.40;99.90
2955;DHT22;1487;51.470;6.938;2022-10-31T00:57:16;14.30;99.90
2955;DHT22;1487;51.470;6.938;2022-10-31T00:59:43;14.30;99.90
2955;DHT22;1487;51.470;6.938;2022-10-31T01:02:10;14.30;99.90
2955;DHT22;1487;51.470;6.938;2022-10-31T01:04:38;14.20;99.90
2955;DHT22;1487;51.470;6.938;2022-10-31T01:07:05;14.20;99.90
2955;DHT22;1487;51.470;6.938;2022-10-31T01:09:32;14.30;99.90
2955;DHT22;1487;51.470;6.938;2022-10-31T01:11:59;14.30;99.90
2955;DHT22;1487;51.470;6.938;2022-10-31T01:14:26;14.30;99.90
2955;DHT22;1487;51.470;6.938;2022-10-31T01:16:52;14.30;99.90
2955;DHT22;1487;51.470;6.938;2022-10-31T01:19:19;14.30;99.90
2955;DHT22;1487;51.470;6.938;2022-10-31T01:21:47;14.30;99.90
2955;DHT22;1487;51.470;6.938;2022-10-31T01:24:14;14.30;99.90
2955;DHT22;1487;51.470;6.938;2022-10-31T01:26:41;14.30;99.90
2955;DHT22;1487;51.470;6.938;2022-10-31T01:29:08;14.30;99.90
2955;DHT22;1487;51.470;6.938;2022-10-31T01:31:37;14.30;99.90
2955;DHT22;1487;51.470;6.938;2022-10-31T01:34:04;14.40;99.90
2955;DHT22;1487;51.470;6.938;2022-10-31T01:36:34;14.40;99.90
2955;DHT22;1487;51.470;6.938;2022-10-31T01:39:04;14.40;99.90
2955;DHT22;1487;51.470;6.938;2022-10-31T01:41:34;14.40;99.90
2955;DHT22;1487;51.470;6.938;2022-10-31T01:44:03;14.40;99.90
2955;DHT22;1487;51.470;6.938;2022-10-31T01:46:53;14.30;99.90
2955;DHT22;1487;51.470;6.938;2022-10-31T01:49:23;14.30;99.90
2955;DHT22;1487;51.470;6.938;2022-10-31T01:51:54;14.20;99.90
2955;DHT22;1487;51.470;6.938;2022-10-31T01:54:26;14.10;99.90
2955;DHT22;1487;51.470;6.938;2022-10-31T01:56:56;14.10;99.90
2955;DHT22;1487;51.470;6.938;2022-10-31T01:59:27;14.00;99.90
2955;DHT22;1487;51.470;6.938;2022-10-31T02:01:55;14.00;99.90
2955;DHT22;1487;51.470;6.938;2022-10-31T02:04:24;14.00;99.90
2955;DHT22;1487;51.470;6.938;2022-10-31T02:06:56;13.90;99.90
2955;DHT22;1487;51.470;6.938;2022-10-31T02:09:27;13.90;99.90
2955;DHT22;1487;51.470;6.938;2022-10-31T02:11:57;13.90;99.90
2955;DHT22;1487;51.470;6.938;2022-10-31T02:14:25;13.90;99.90
2955;DHT22;1487;51.470;6.938;2022-10-31T02:16:53;13.80;99.90
2955;DHT22;1487;51.470;6.938;2022-10-31T02:19:26;13.70;99.90
2955;DHT22;1487;51.470;6.938;2022-10-31T02:22:02;13.60;99.90
2955;DHT22;1487;51.470;6.938;2022-10-31T02:24:46;13.50;99.90
2955;DHT22;1487;51.470;6.938;2022-10-31T02:27:40;13.50;99.90
2955;DHT22;1487;51.470;6.938;2022-10-31T02:30:12;13.50;99.90
2955;DHT22;1487;51.470;6.938;2022-10-31T02:32:52;13.40;99.90
2955;DHT22;1487;51.470;6.938;2022-10-31T02:35:30;13.40;99.90
2955;DHT22;1487;51.470;6.938;2022-10-31T02:38:08;13.40;99.90
2955;DHT22;1487;51.470;6.938;2022-10-31T02:40:44;13.30;99.90
2955;DHT22;1487;51.470;6.938;2022-10-31T02:43:19;13.30;99.90
2955;DHT22;1487;51.470;6.938;2022-10-31T02:45:51;13.20;99.90
2955;DHT22;1487;51.470;6.938;2022-10-31T02:48:26;13.20;99.90
2955;DHT22;1487;51.470;6.938;2022-10-31T02:50:56;13.10;99.90
2955;DHT22;1487;51.470;6.938;2022-10-31T02:53:24;13.10;99.90
2955;DHT22;1487;51.470;6.938;2022-10-31T02:55:59;13.10;99.90
2955;DHT22;1487;51.470;6.938;2022-10-31T02:58:30;13.00;99.90
2955;DHT22;1487;51.470;6.938;2022-10-31T03:04:02;13.00;99.90
2955;DHT22;1487;51.470;6.938;2022-10-31T03:06:33;13.00;99.90
2955;DHT22;1487;51.470;6.938;2022-10-31T03:09:07;13.10;99.90
2955;DHT22;1487;51.470;6.938;2022-10-31T03:11:44;13.10;99.90
2955;DHT22;1487;51.470;6.938;2022-10-31T03:14:17;13.00;99.90
2955;DHT22;1487;51.470;6.938;2022-10-31T03:16:48;12.90;99.90
2955;DHT22;1487;51.470;6.938;2022-10-31T03:19:21;12.90;99.90
2955;DHT22;1487;51.470;6.938;2022-10-31T03:21:53;12.90;99.90
2955;DHT22;1487;51.470;6.938;2022-10-31T03:24:25;12.80;99.90
2955;DHT22;1487;51.470;6.938;2022-10-31T03:26:55;12.90;99.90
2955;DHT22;1487;51.470;6.938;2022-10-31T03:29:27;12.70;99.90
2955;DHT22;1487;51.470;6.938;2022-10-31T03:31:57;12.70;99.90
2955;DHT22;1487;51.470;6.938;2022-10-31T03:34:28;12.70;99.90
2955;DHT22;1487;51.470;6.938;2022-10-31T03:37:00;12.60;99.90
2955;DHT22;1487;51.470;6.938;2022-10-31T03:39:28;12.60;99.90
2955;DHT22;1487;51.470;6.938;2022-10-31T03:41:58;12.60;99.90
2955;DHT22;1487;51.470;6.938;2022-10-31T03:44:27;12.50;99.90
2955;DHT22;1487;51.470;6.938;2022-10-31T03:46:56;12.50;99.90
2955;DHT22;1487;51.470;6.938;2022-10-31T03:49:23;12.50;99.90
2955;DHT22;1487;51.470;6.938;2022-10-31T03:51:55;12.40;99.90
2955;DHT22;1487;51.470;6.938;2022-10-31T03:54:27;12.40;99.90
2955;DHT22;1487;51.470;6.938;2022-10-31T03:57:01;12.40;99.90
2955;DHT22;1487;51.470;6.938;2022-10-31T03:59:32;12.40;99.90
2955;DHT22;1487;51.470;6.938;2022-10-31T04:02:05;12.40;99.90
2955;DHT22;1487;51.470;6.938;2022-10-31T04:04:33;12.40;99.90
2955;DHT22;1487;51.470;6.938;2022-10-31T04:07:03;12.50;99.90
2955;DHT22;1487;51.470;6.938;2022-10-31T04:09:33;12.50;99.90
2955;DHT22;1487;51.470;6.938;2022-10-31T04:12:02;12.50;99.90
2955;DHT22;1487;51.470;6.938;2022-10-31T04:14:32;12.50;99.90
2955;DHT22;1487;51.470;6.938;2022-10-31T04:17:01;12.50;99.90
2955;DHT22;1487;51.470;6.938;2022-10-31T04:19:29;12.40;99.90
2955;DHT22;1487;51.470;6.938;2022-10-31T04:21:56;12.40;99.90
2955;DHT22;1487;51.470;6.938;2022-10-31T04:24:24;12.50;99.90
2955;DHT22;1487;51.470;6.938;2022-10-31T04:26:51;12.50;99.90
2955;DHT22;1487;51.470;6.938;2022-10-31T04:29:18;12.50;99.90
2955;DHT22;1487;51.470;6.938;2022-10-31T04:31:45;12.60;99.90
2955;DHT22;1487;51.470;6.938;2022-10-31T04:34:12;12.60;99.90
2955;DHT22;1487;51.470;6.938;2022-10-31T04:36:39;12.60;99.90
2955;DHT22;1487;51.470;6.938;2022-10-31T04:39:05;12.60;99.90
2955;DHT22;1487;51.470;6.938;2022-10-31T04:41:34;12.70;99.90
2955;DHT22;1487;51.470;6.938;2022-10-31T04:44:00;12.70;99.90
2955;DHT22;1487;51.470;6.938;2022-10-31T04:46:27;12.60;99.90
2955;DHT22;1487;51.470;6.938;2022-10-31T04:48:54;12.60;99.90
2955;DHT22;1487;51.470;6.938;2022-10-31T04:51:21;12.60;99.90
2955;DHT22;1487;51.470;6.938;2022-10-31T04:53:48;12.60;99.90
2955;DHT22;1487;51.470;6.938;2022-10-31T04:56:15;12.70;99.90
2955;DHT22;1487;51.470;6.938;2022-10-31T04:58:43;12.70;99.90
2955;DHT22;1487;51.470;6.938;2022-10-31T05:01:10;12.70;99.90
2955;DHT22;1487;51.470;6.938;2022-10-31T05:03:37;12.70;99.90
2955;DHT22;1487;51.470;6.938;2022-10-31T05:06:05;12.80;99.90
2955;DHT22;1487;51.470;6.938;2022-10-31T05:08:32;12.80;99.90
2955;DHT22;1487;51.470;6.938;2022-10-31T05:10:59;12.80;99.90
2955;DHT22;1487;51.470;6.938;2022-10-31T05:13:27;12.70;99.90
2955;DHT22;1487;51.470;6.938;2022-10-31T05:15:55;12.70;99.90
2955;DHT22;1487;51.470;6.938;2022-10-31T05:18:22;12.60;99.90
2955;DHT22;1487;51.470;6.938;2022-10-31T05:20:49;12.60;99.90
2955;DHT22;1487;51.470;6.938;2022-10-31T05:23:16;12.50;99.90
2955;DHT22;1487;51.470;6.938;2022-10-31T05:25:43;12.40;99.90
2955;DHT22;1487;51.470;6.938;2022-10-31T05:28:10;12.50;99.90
2955;DHT22;1487;51.470;6.938;2022-10-31T05:30:37;12.50;99.90
2955;DHT22;1487;51.470;6.938;2022-10-31T05:33:05;12.40;99.90
2955;DHT22;1487;51.470;6.938;2022-10-31T05:35:32;12.40;99.90
2955;DHT22;1487;51.470;6.938;2022-10-31T05:38:00;12.30;99.90
2955;DHT22;1487;51.470;6.938;2022-10-31T05:40:27;12.30;99.90
2955;DHT22;1487;51.470;6.938;2022-10-31T05:42:55;12.40;99.90
2955;DHT22;1487;51.470;6.938;2022-10-31T05:45:24;12.40;99.90
2955;DHT22;1487;51.470;6.938;2022-10-31T05:47:52;12.40;99.90
2955;DHT22;1487;51.470;6.938;2022-10-31T05:50:20;12.40;99.90
2955;DHT22;1487;51.470;6.938;2022-10-31T05:52:53;12.40;99.90
2955;DHT22;1487;51.470;6.938;2022-10-31T05:55:20;12.40;99.90
2955;DHT22;1487;51.470;6.938;2022-10-31T05:57:47;12.40;99.90
2955;DHT22;1487;51.470;6.938;2022-10-31T06:00:14;12.50;99.90
2955;DHT22;1487;51.470;6.938;2022-10-31T06:02:41;12.50;99.90
2955;DHT22;1487;51.470;6.938;2022-10-31T06:05:08;12.40;99.90
2955;DHT22;1487;51.470;6.938;2022-10-31T06:07:36;12.50;99.90
2955;DHT22;1487;51.470;6.938;2022-10-31T06:10:05;12.40;99.90
2955;DHT22;1487;51.470;6.938;2022-10-31T06:12:33;12.40;99.90
2955;DHT22;1487;51.470;6.938;2022-10-31T06:15:03;12.40;99.90
2955;DHT22;1487;51.470;6.938;2022-10-31T06:17:30;12.40;99.90
2955;DHT22;1487;51.470;6.938;2022-10-31T06:19:57;12.30;99.90
2955;DHT22;1487;51.470;6.938;2022-10-31T06:22:24;12.40;99.90
2955;DHT22;1487;51.470;6.938;2022-10-31T06:24:52;12.30;99.90
2955;DHT22;1487;51.470;6.938;2022-10-31T06:27:19;12.40;99.90
2955;DHT22;1487;51.470;6.938;2022-10-31T06:29:46;12.40;99.90
2955;DHT22;1487;51.470;6.938;2022-10-31T06:32:13;12.40;99.90
2955;DHT22;1487;51.470;6.938;2022-10-31T06:34:40;12.40;99.90
2955;DHT22;1487;51.470;6.938;2022-10-31T06:37:07;12.30;99.90
2955;DHT22;1487;51.470;6.938;2022-10-31T06:39:34;12.30;99.90
2955;DHT22;1487;51.470;6.938;2022-10-31T06:42:03;12.40;99.90
2955;DHT22;1487;51.470;6.938;2022-10-31T06:44:30;12.40;99.90
2955;DHT22;1487;51.470;6.938;2022-10-31T06:46:57;12.50;99.90
2955;DHT22;1487;51.470;6.938;2022-10-31T06:49:24;12.50;99.90
2955;DHT22;1487;51.470;6.938;2022-10-31T06:51:51;12.60;99.90
2955;DHT22;1487;51.470;6.938;2022-10-31T06:54:18;12.60;99.90
2955;DHT22;1487;51.470;6.938;2022-10-31T06:56:46;12.70;99.90
2955;DHT22;1487;51.470;6.938;2022-10-31T06:59:15;12.70;99.90
2955;DHT22;1487;51.470;6.938;2022-10-31T07:01:42;12.80;99.90
2955;DHT22;1487;51.470;6.938;2022-10-31T07:04:09;12.80;99.90
2955;DHT22;1487;51.470;6.938;2022-10-31T07:06:36;12.90;99.90
2955;DHT22;1487;51.470;6.938;2022-10-31T07:09:03;12.90;99.90
2955;DHT22;1487;51.470;6.938;2022-10-31T07:11:30;12.90;99.90
2955;DHT22;1487;51.470;6.938;2022-10-31T07:13:57;13.00;99.90
2955;DHT22;1487;51.470;6.938;2022-10-31T07:16:26;13.10;99.90
2955;DHT22;1487;51.470;6.938;2022-10-31T07:18:52;13.00;99.90
2955;DHT22;1487;51.470;6.938;2022-10-31T07:21:19;13.10;99.90
2955;DHT22;1487;51.470;6.938;2022-10-31T07:23:47;13.10;99.90
2955;DHT22;1487;51.470;6.938;2022-10-31T07:26:15;13.20;99.90
2955;DHT22;1487;51.470;6.938;2022-10-31T07:28:42;13.20;99.90
2955;DHT22;1487;51.470;6.938;2022-10-31T07:31:08;13.30;99.90
2955;DHT22;1487;51.470;6.938;2022-10-31T07:33:37;13.30;99.90
2955;DHT22;1487;51.470;6.938;2022-10-31T07:36:04;13.30;99.90
2955;DHT22;1487;51.470;6.938;2022-10-31T07:38:31;13.40;99.90
2955;DHT22;1487;51.470;6.938;2022-10-31T07:40:58;13.50;99.90
2955;DHT22;1487;51.470;6.938;2022-10-31T07:43:25;13.70;99.90
2955;DHT22;1487;51.470;6.938;2022-10-31T07:45:52;13.80;99.90
2955;DHT22;1487;51.470;6.938;2022-10-31T07:48:19;13.90;99.90
2955;DHT22;1487;51.470;6.938;2022-10-31T07:50:48;14.00;99.90
2955;DHT22;1487;51.470;6.938;2022-10-31T07:53:15;14.10;99.90
2955;DHT22;1487;51.470;6.938;2022-10-31T07:55:42;14.30;99.90
2955;DHT22;1487;51.470;6.938;2022-10-31T07:58:11;14.50;99.90
2955;DHT22;1487;51.470;6.938;2022-10-31T08:00:40;14.70;99.90
2955;DHT22;1487;51.470;6.938;2022-10-31T08:03:08;15.00;99.90
2955;DHT22;1487;51.470;6.938;2022-10-31T08:05:35;15.30;99.90
2955;DHT22;1487;51.470;6.938;2022-10-31T08:08:04;15.60;99.90
2955;DHT22;1487;51.470;6.938;2022-10-31T08:10:32;16.00;99.90
2955;DHT22;1487;51.470;6.938;2022-10-31T08:13:00;16.20;99.90
2955;DHT22;1487;51.470;6.938;2022-10-31T08:15:28;16.30;99.90
2955;DHT22;1487;51.470;6.938;2022-10-31T08:17:55;16.30;99.90
2955;DHT22;1487;51.470;6.938;2022-10-31T08:20:22;16.40;99.90
2955;DHT22;1487;51.470;6.938;2022-10-31T08:22:59;16.70;99.90
2955;DHT22;1487;51.470;6.938;2022-10-31T08:25:29;16.60;99.90
2955;DHT22;1487;51.470;6.938;2022-10-31T08:27:56;16.80;99.90
2955;DHT22;1487;51.470;6.938;2022-10-31T08:30:25;17.30;99.90
2955;DHT22;1487;51.470;6.938;2022-10-31T08:33:03;18.00;99.90
2955;DHT22;1487;51.470;6.938;2022-10-31T08:35:31;18.70;99.90
2955;DHT22;1487;51.470;6.938;2022-10-31T08:37:58;19.20;99.90
2955;DHT22;1487;51.470;6.938;2022-10-31T08:40:27;19.30;99.90
2955;DHT22;1487;51.470;6.938;2022-10-31T08:42:58;19.50;99.90
2955;DHT22;1487;51.470;6.938;2022-10-31T08:45:26;19.60;99.90
2955;DHT22;1487;51.470;6.938;2022-10-31T08:47:57;20.00;99.90
2955;DHT22;1487;51.470;6.938;2022-10-31T08:50:24;20.50;99.90
2955;DHT22;1487;51.470;6.938;2022-10-31T08:52:51;21.00;99.90
2955;DHT22;1487;51.470;6.938;2022-10-31T08:55:18;21.70;99.90
2955;DHT22;1487;51.470;6.938;2022-10-31T08:57:47;21.90;99.90
2955;DHT22;1487;51.470;6.938;2022-10-31T09:00:14;22.10;99.90
2955;DHT22;1487;51.470;6.938;2022-10-31T09:02:41;22.30;99.90
2955;DHT22;1487;51.470;6.938;2022-10-31T09:05:08;22.30;99.90
2955;DHT22;1487;51.470;6.938;2022-10-31T09:07:35;22.30;99.90
2955;DHT22;1487;51.470;6.938;2022-10-31T09:10:02;22.40;99.90
2955;DHT22;1487;51.470;6.938;2022-10-31T09:12:29;22.30;99.90
2955;DHT22;1487;51.470;6.938;2022-10-31T09:14:57;22.40;99.90
2955;DHT22;1487;51.470;6.938;2022-10-31T09:17:26;22.40;99.90
2955;DHT22;1487;51.470;6.938;2022-10-31T09:19:54;22.40;99.90
2955;DHT22;1487;51.470;6.938;2022-10-31T09:22:21;22.20;99.90
2955;DHT22;1487;51.470;6.938;2022-10-31T09:24:48;22.00;99.90
2955;DHT22;1487;51.470;6.938;2022-10-31T09:27:14;21.80;99.90
2955;DHT22;1487;51.470;6.938;2022-10-31T09:29:41;21.40;99.90
2955;DHT22;1487;51.470;6.938;2022-10-31T09:32:10;21.20;99.90
2955;DHT22;1487;51.470;6.938;2022-10-31T09:34:36;21.00;99.90
2955;DHT22;1487;51.470;6.938;2022-10-31T09:37:03;20.90;99.90
2955;DHT22;1487;51.470;6.938;2022-10-31T09:39:30;20.70;99.90
2955;DHT22;1487;51.470;6.938;2022-10-31T09:42:09;20.50;99.90
2955;DHT22;1487;51.470;6.938;2022-10-31T09:44:50;20.40;99.90
2955;DHT22;1487;51.470;6.938;2022-10-31T09:47:26;20.30;99.90
2955;DHT22;1487;51.470;6.938;2022-10-31T09:50:07;20.20;99.90
2955;DHT22;1487;51.470;6.938;2022-10-31T09:52:41;20.00;99.90
2955;DHT22;1487;51.470;6.938;2022-10-31T09:55:16;19.70;99.90
2955;DHT22;1487;51.470;6.938;2022-10-31T09:57:44;19.40;99.90
2955;DHT22;1487;51.470;6.938;2022-10-31T10:00:16;19.30;99.90
2955;DHT22;1487;51.470;6.938;2022-10-31T10:02:47;19.20;99.90
2955;DHT22;1487;51.470;6.938;2022-10-31T10:05:18;19.10;99.90
2955;DHT22;1487;51.470;6.938;2022-10-31T10:07:53;19.00;99.90
2955;DHT22;1487;51.470;6.938;2022-10-31T10:10:25;19.10;99.90
2955;DHT22;1487;51.470;6.938;2022-10-31T10:13:08;19.20;99.90
2955;DHT22;1487;51.470;6.938;2022-10-31T10:15:49;19.40;99.90
2955;DHT22;1487;51.470;6.938;2022-10-31T10:18:26;19.80;99.90
2955;DHT22;1487;51.470;6.938;2022-10-31T10:21:06;20.20;99.90
2955;DHT22;1487;51.470;6.938;2022-10-31T10:23:44;20.70;99.90
2955;DHT22;1487;51.470;6.938;2022-10-31T10:26:17;20.70;99.90
2955;DHT22;1487;51.470;6.938;2022-10-31T10:28:47;20.90;99.90
2955;DHT22;1487;51.470;6.938;2022-10-31T10:31:17;21.00;99.90
2955;DHT22;1487;51.470;6.938;2022-10-31T10:33:56;20.90;99.90
2955;DHT22;1487;51.470;6.938;2022-10-31T10:36:29;20.80;99.90
2955;DHT22;1487;51.470;6.938;2022-10-31T10:39:00;20.80;99.90
2955;DHT22;1487;51.470;6.938;2022-10-31T10:41:31;20.80;99.90
2955;DHT22;1487;51.470;6.938;2022-10-31T10:43:58;20.80;99.90
2955;DHT22;1487;51.470;6.938;2022-10-31T10:46:32;20.80;99.90
2955;DHT22;1487;51.470;6.938;2022-10-31T10:49:24;20.90;99.90
2955;DHT22;1487;51.470;6.938;2022-10-31T10:51:58;20.70;99.90
2955;DHT22;1487;51.470;6.938;2022-10-31T10:54:46;20.60;99.90
2955;DHT22;1487;51.470;6.938;2022-10-31T10:57:34;20.30;99.90
2955;DHT22;1487;51.470;6.938;2022-10-31T11:00:16;20.00;99.90
2955;DHT22;1487;51.470;6.938;2022-10-31T11:02:43;19.80;99.90
2955;DHT22;1487;51.470;6.938;2022-10-31T11:05:18;19.80;99.90
2955;DHT22;1487;51.470;6.938;2022-10-31T11:07:47;19.80;99.90
2955;DHT22;1487;51.470;6.938;2022-10-31T11:10:15;19.80;99.90
2955;DHT22;1487;51.470;6.938;2022-10-31T11:12:43;19.80;99.90
2955;DHT22;1487;51.470;6.938;2022-10-31T11:15:18;19.90;99.90
2955;DHT22;1487;51.470;6.938;2022-10-31T11:17:48;19.80;99.90
2955;DHT22;1487;51.470;6.938;2022-10-31T11:20:28;19.90;99.90
2955;DHT22;1487;51.470;6.938;2022-10-31T11:23:16;20.10;99.90
2955;DHT22;1487;51.470;6.938;2022-10-31T11:25:51;20.20;99.90
2955;DHT22;1487;51.470;6.938;2022-10-31T11:28:19;20.20;99.90
2955;DHT22;1487;51.470;6.938;2022-10-31T11:30:47;20.10;99.90
2955;DHT22;1487;51.470;6.938;2022-10-31T11:33:18;20.00;99.90
2955;DHT22;1487;51.470;6.938;2022-10-31T11:35:48;20.10;99.90
2955;DHT22;1487;51.470;6.938;2022-10-31T11:38:18;20.20;99.90
2955;DHT22;1487;51.470;6.938;2022-10-31T11:40:53;20.30;99.90
2955;DHT22;1487;51.470;6.938;2022-10-31T11:43:21;20.40;99.90
2955;DHT22;1487;51.470;6.938;2022-10-31T11:45:48;20.40;99.90
2955;DHT22;1487;51.470;6.938;2022-10-31T11:48:17;20.50;99.90
2955;DHT22;1487;51.470;6.938;2022-10-31T11:50:50;20.40;99.90
2955;DHT22;1487;51.470;6.938;2022-10-31T11:53:26;20.40;99.90
2955;DHT22;1487;51.470;6.938;2022-10-31T11:56:12;20.30;99.90
2955;DHT22;1487;51.470;6.938;2022-10-31T11:58:39;20.30;99.90
2955;DHT22;1487;51.470;6.938;2022-10-31T12:01:23;20.20;99.90
2955;DHT22;1487;51.470;6.938;2022-10-31T12:03:57;20.30;99.90
2955;DHT22;1487;51.470;6.938;2022-10-31T12:06:30;20.50;99.90
2955;DHT22;1487;51.470;6.938;2022-10-31T12:08:58;20.70;99.90
2955;DHT22;1487;51.470;6.938;2022-10-31T12:11:38;20.80;99.90
2955;DHT22;1487;51.470;6.938;2022-10-31T12:14:21;20.80;99.90
2955;DHT22;1487;51.470;6.938;2022-10-31T12:16:55;20.70;99.90
2955;DHT22;1487;51.470;6.938;2022-10-31T12:19:32;20.70;99.90
2955;DHT22;1487;51.470;6.938;2022-10-31T12:22:12;20.80;99.90
2955;DHT22;1487;51.470;6.938;2022-10-31T12:25:09;20.80;99.90
2955;DHT22;1487;51.470;6.938;2022-10-31T12:27:58;20.90;99.90
2955;DHT22;1487;51.470;6.938;2022-10-31T12:30:31;21.00;99.90
2955;DHT22;1487;51.470;6.938;2022-10-31T12:33:34;21.10;99.90
2955;DHT22;1487;51.470;6.938;2022-10-31T12:36:29;21.10;99.90
2955;DHT22;1487;51.470;6.938;2022-10-31T12:41:52;21.10;99.90
2955;DHT22;1487;51.470;6.938;2022-10-31T12:44:44;21.30;99.90
2955;DHT22;1487;51.470;6.938;2022-10-31T12:47:33;21.40;99.90
2955;DHT22;1487;51.470;6.938;2022-10-31T12:50:16;21.50;99.90
2955;DHT22;1487;51.470;6.938;2022-10-31T12:53:00;21.60;99.90
2955;DHT22;1487;51.470;6.938;2022-10-31T12:55:51;21.70;99.90
2955;DHT22;1487;51.470;6.938;2022-10-31T12:58:25;21.70;99.90
2955;DHT22;1487;51.470;6.938;2022-10-31T13:01:02;21.70;99.90
2955;DHT22;1487;51.470;6.938;2022-10-31T13:03:33;21.90;99.90
2955;DHT22;1487;51.470;6.938;2022-10-31T13:06:05;22.20;99.90
2955;DHT22;1487;51.470;6.938;2022-10-31T13:08:38;22.40;99.90
2955;DHT22;1487;51.470;6.938;2022-10-31T13:11:10;22.60;99.90
2955;DHT22;1487;51.470;6.938;2022-10-31T13:13:40;22.70;99.90
2955;DHT22;1487;51.470;6.938;2022-10-31T13:16:13;22.90;99.90
2955;DHT22;1487;51.470;6.938;2022-10-31T13:18:46;23.30;99.90
2955;DHT22;1487;51.470;6.938;2022-10-31T13:21:18;23.60;99.90
2955;DHT22;1487;51.470;6.938;2022-10-31T13:23:49;23.60;99.90
2955;DHT22;1487;51.470;6.938;2022-10-31T13:26:35;23.60;99.90
2955;DHT22;1487;51.470;6.938;2022-10-31T13:29:09;23.40;99.90
2955;DHT22;1487;51.470;6.938;2022-10-31T13:31:40;23.20;99.90
2955;DHT22;1487;51.470;6.938;2022-10-31T13:34:11;22.90;99.90
2955;DHT22;1487;51.470;6.938;2022-10-31T13:36:47;22.80;99.90
2955;DHT22;1487;51.470;6.938;2022-10-31T13:39:23;22.70;99.90
2955;DHT22;1487;51.470;6.938;2022-10-31T13:42:02;22.60;99.90
2955;DHT22;1487;51.470;6.938;2022-10-31T13:44:34;22.60;99.90
2955;DHT22;1487;51.470;6.938;2022-10-31T13:47:03;22.60;99.90
2955;DHT22;1487;51.470;6.938;2022-10-31T13:49:38;22.50;99.90
2955;DHT22;1487;51.470;6.938;2022-10-31T13:52:11;22.40;99.90
2955;DHT22;1487;51.470;6.938;2022-10-31T13:54:41;22.30;99.90
2955;DHT22;1487;51.470;6.938;2022-10-31T13:57:17;22.20;99.90
2955;DHT22;1487;51.470;6.938;2022-10-31T13:59:49;22.10;99.90
2955;DHT22;1487;51.470;6.938;2022-10-31T14:02:18;21.90;99.90
2955;DHT22;1487;51.470;6.938;2022-10-31T14:04:48;21.80;99.90
2955;DHT22;1487;51.470;6.938;2022-10-31T14:07:20;21.60;99.90
2955;DHT22;1487;51.470;6.938;2022-10-31T14:09:55;21.40;99.90
2955;DHT22;1487;51.470;6.938;2022-10-31T14:12:28;21.30;99.90
2955;DHT22;1487;51.470;6.938;2022-10-31T14:14:59;21.30;99.90
2955;DHT22;1487;51.470;6.938;2022-10-31T14:17:30;21.30;99.90
2955;DHT22;1487;51.470;6.938;2022-10-31T14:20:01;21.30;99.90
2955;DHT22;1487;51.470;6.938;2022-10-31T14:22:31;21.20;99.90
2955;DHT22;1487;51.470;6.938;2022-10-31T14:24:58;21.20;99.90
2955;DHT22;1487;51.470;6.938;2022-10-31T14:27:45;21.30;99.90
2955;DHT22;1487;51.470;6.938;2022-10-31T14:30:18;21.40;99.90
2955;DHT22;1487;51.470;6.938;2022-10-31T14:32:52;21.40;99.90
2955;DHT22;1487;51.470;6.938;2022-10-31T14:35:20;21.40;99.90
2955;DHT22;1487;51.470;6.938;2022-10-31T14:41:08;21.20;99.90
2955;DHT22;1487;51.470;6.938;2022-10-31T14:43:51;21.10;99.90
2955;DHT22;1487;51.470;6.938;2022-10-31T14:46:28;21.00;99.90
2955;DHT22;1487;51.470;6.938;2022-10-31T14:49:10;20.80;99.90
2955;DHT22;1487;51.470;6.938;2022-10-31T14:51:40;20.80;99.90
2955;DHT22;1487;51.470;6.938;2022-10-31T14:54:14;20.70;99.90
2955;DHT22;1487;51.470;6.938;2022-10-31T14:56:48;20.50;99.90
2955;DHT22;1487;51.470;6.938;2022-10-31T14:59:20;20.50;99.90
2955;DHT22;1487;51.470;6.938;2022-10-31T15:01:56;20.40;99.90
2955;DHT22;1487;51.470;6.938;2022-10-31T15:04:25;20.40;99.90
2955;DHT22;1487;51.470;6.938;2022-10-31T15:06:58;20.40;99.90
2955;DHT22;1487;51.470;6.938;2022-10-31T15:09:28;20.40;99.90
2955;DHT22;1487;51.470;6.938;2022-10-31T15:11:58;20.40;99.90
2955;DHT22;1487;51.470;6.938;2022-10-31T15:14:28;20.40;99.90
2955;DHT22;1487;51.470;6.938;2022-10-31T15:16:57;20.40;99.90
2955;DHT22;1487;51.470;6.938;2022-10-31T15:19:26;20.30;99.90
2955;DHT22;1487;51.470;6.938;2022-10-31T15:21:56;20.30;99.90
2955;DHT22;1487;51.470;6.938;2022-10-31T15:24:25;20.20;99.90
2955;DHT22;1487;51.470;6.938;2022-10-31T15:26:54;20.10;99.90
2955;DHT22;1487;51.470;6.938;2022-10-31T15:29:23;20.00;99.90
2955;DHT22;1487;51.470;6.938;2022-10-31T15:31:52;20.00;99.90
2955;DHT22;1487;51.470;6.938;2022-10-31T15:34:22;19.90;99.90
2955;DHT22;1487;51.470;6.938;2022-10-31T15:36:51;19.80;99.90
2955;DHT22;1487;51.470;6.938;2022-10-31T15:39:18;19.80;99.90
2955;DHT22;1487;51.470;6.938;2022-10-31T15:41:49;19.80;99.90
2955;DHT22;1487;51.470;6.938;2022-10-31T15:44:20;19.70;99.90
2955;DHT22;1487;51.470;6.938;2022-10-31T15:46:55;19.60;99.90
2955;DHT22;1487;51.470;6.938;2022-10-31T15:49:29;19.40;99.90
2955;DHT22;1487;51.470;6.938;2022-10-31T15:52:03;19.30;99.90
2955;DHT22;1487;51.470;6.938;2022-10-31T15:54:31;19.20;99.90
2955;DHT22;1487;51.470;6.938;2022-10-31T15:56:58;19.10;99.90
2955;DHT22;1487;51.470;6.938;2022-10-31T15:59:27;19.00;99.90
2955;DHT22;1487;51.470;6.938;2022-10-31T16:01:59;18.90;99.90
2955;DHT22;1487;51.470;6.938;2022-10-31T16:04:26;18.80;99.90
2955;DHT22;1487;51.470;6.938;2022-10-31T16:07:01;18.70;99.90
2955;DHT22;1487;51.470;6.938;2022-10-31T16:09:28;18.60;99.90
2955;DHT22;1487;51.470;6.938;2022-10-31T16:11:56;18.40;99.90
2955;DHT22;1487;51.470;6.938;2022-10-31T16:14:26;18.30;99.90
2955;DHT22;1487;51.470;6.938;2022-10-31T16:16:57;18.20;99.90
2955;DHT22;1487;51.470;6.938;2022-10-31T16:19:26;18.20;99.90
2955;DHT22;1487;51.470;6.938;2022-10-31T16:22:00;18.10;99.90
2955;DHT22;1487;51.470;6.938;2022-10-31T16:24:31;18.10;99.90
2955;DHT22;1487;51.470;6.938;2022-10-31T16:27:03;18.00;99.90
2955;DHT22;1487;51.470;6.938;2022-10-31T16:29:34;17.90;99.90
2955;DHT22;1487;51.470;6.938;2022-10-31T16:32:04;17.90;99.90
2955;DHT22;1487;51.470;6.938;2022-10-31T16:34:31;17.80;99.90